sensor_id;sensor_type;location;lat;lon;timestamp;P1;durP1;ratioP1;P2;durP2;ratioP2
151;SDS011;68;48.792;9.164;2024-02-04T00:00:02;12.20;;;11.60;;
151;SDS011;68;48.792;9.164;2024-02-04T00:02:31;12.35;;;11.75;;
151;SDS011;68;48.792;9.164;2024-02-04T00:04:58;12.73;;;12.02;;
151;SDS011;68;48.792;9.164;2024-02-04T00:07:25;12.52;;;11.90;;
151;SDS011;68;48.792;9.164;2024-02-04T00:09:52;12.05;;;11.45;;
151;SDS011;68;48.792;9.164;2024-02-04T00:12:20;12.80;;;12.10;;
151;SDS011;68;48.792;9.164;2024-02-04T00:14:46;12.50;;;11.90;;
151;SDS011;68;48.792;9.164;2024-02-04T00:17:14;12.77;;;12.07;;
151;SDS011;68;48.792;9.164;2024-02-04T00:19:43;12.75;;;12.05;;
151;SDS011;68;48.792;9.164;2024-02-04T00:22:09;12.80;;;12.10;;
151;SDS011;68;48.792;9.164;2024-02-04T00:24:36;13.45;;;12.75;;
151;SDS011;68;48.792;9.164;2024-02-04T00:27:03;13.60;;;12.90;;
151;SDS011;68;48.792;9.164;2024-02-04T00:29:30;12.75;;;12.05;;
151;SDS011;68;48.792;9.164;2024-02-04T00:31:57;12.65;;;11.98;;
151;SDS011;68;48.792;9.164;2024-02-04T00:34:23;12.25;;;11.65;;
151;SDS011;68;48.792;9.164;2024-02-04T00:36:52;12.40;;;11.80;;
151;SDS011;68;48.792;9.164;2024-02-04T00:39:18;12.80;;;12.10;;
151;SDS011;68;48.792;9.164;2024-02-04T00:41:45;12.10;;;11.50;;
151;SDS011;68;48.792;9.164;2024-02-04T00:44:12;12.23;;;11.63;;
151;SDS011;68;48.792;9.164;2024-02-04T00:46:39;13.00;;;12.30;;
151;SDS011;68;48.792;9.164;2024-02-04T00:49:05;12.77;;;12.07;;
151;SDS011;68;48.792;9.164;2024-02-04T00:51:32;12.35;;;11.75;;
151;SDS011;68;48.792;9.164;2024-02-04T00:54:00;12.93;;;12.23;;
151;SDS011;68;48.792;9.164;2024-02-04T00:56:27;13.07;;;12.38;;
151;SDS011;68;48.792;9.164;2024-02-04T00:58:54;12.85;;;12.15;;
151;SDS011;68;48.792;9.164;2024-02-04T01:01:20;12.70;;;12.00;;
151;SDS011;68;48.792;9.164;2024-02-04T01:03:47;12.32;;;11.73;;
151;SDS011;68;48.792;9.164;2024-02-04T01:06:14;12.23;;;11.63;;
151;SDS011;68;48.792;9.164;2024-02-04T01:08:41;12.40;;;11.80;;
151;SDS011;68;48.792;9.164;2024-02-04T01:11:09;12.73;;;12.02;;
151;SDS011;68;48.792;9.164;2024-02-04T01:13:36;13.10;;;12.40;;
151;SDS011;68;48.792;9.164;2024-02-04T01:16:03;12.88;;;12.18;;
151;SDS011;68;48.792;9.164;2024-02-04T01:18:30;13.07;;;12.38;;
151;SDS011;68;48.792;9.164;2024-02-04T01:20:57;12.80;;;12.10;;
151;SDS011;68;48.792;9.164;2024-02-04T01:23:25;13.07;;;12.38;;
151;SDS011;68;48.792;9.164;2024-02-04T01:25:52;12.70;;;12.00;;
151;SDS011;68;48.792;9.164;2024-02-04T01:28:20;13.15;;;12.45;;
151;SDS011;68;48.792;9.164;2024-02-04T01:30:47;12.82;;;12.13;;
151;SDS011;68;48.792;9.164;2024-02-04T01:33:13;12.88;;;12.18;;
151;SDS011;68;48.792;9.164;2024-02-04T01:35:40;13.48;;;12.77;;
151;SDS011;68;48.792;9.164;2024-02-04T01:38:07;12.32;;;11.73;;
151;SDS011;68;48.792;9.164;2024-02-04T01:40:34;12.35;;;11.75;;
151;SDS011;68;48.792;9.164;2024-02-04T01:43:01;12.35;;;11.75;;
151;SDS011;68;48.792;9.164;2024-02-04T01:45:29;12.32;;;11.73;;
151;SDS011;68;48.792;9.164;2024-02-04T01:47:55;12.77;;;12.07;;
151;SDS011;68;48.792;9.164;2024-02-04T01:50:22;12.20;;;11.60;;
151;SDS011;68;48.792;9.164;2024-02-04T01:52:50;13.23;;;12.52;;
151;SDS011;68;48.792;9.164;2024-02-04T01:55:18;12.13;;;11.52;;
151;SDS011;68;48.792;9.164;2024-02-04T01:57:45;12.90;;;12.20;;
151;SDS011;68;48.792;9.164;2024-02-04T02:00:14;12.60;;;11.95;;
151;SDS011;68;48.792;9.164;2024-02-04T02:02:43;13.15;;;12.45;;
151;SDS011;68;48.792;9.164;2024-02-04T02:05:13;13.40;;;12.25;;
151;SDS011;68;48.792;9.164;2024-02-04T02:07:40;12.95;;;12.25;;
151;SDS011;68;48.792;9.164;2024-02-04T02:10:09;12.70;;;12.02;;
151;SDS011;68;48.792;9.164;2024-02-04T02:12:39;13.10;;;12.40;;
151;SDS011;68;48.792;9.164;2024-02-04T02:15:10;12.82;;;12.13;;
151;SDS011;68;48.792;9.164;2024-02-04T02:17:42;13.20;;;12.50;;
151;SDS011;68;48.792;9.164;2024-02-04T02:20:17;12.95;;;12.25;;
151;SDS011;68;48.792;9.164;2024-02-04T02:22:48;13.05;;;12.35;;
151;SDS011;68;48.792;9.164;2024-02-04T02:25:17;12.90;;;12.20;;
151;SDS011;68;48.792;9.164;2024-02-04T02:27:47;13.40;;;12.70;;
151;SDS011;68;48.792;9.164;2024-02-04T02:30:14;13.05;;;12.35;;
151;SDS011;68;48.792;9.164;2024-02-04T02:32:42;13.25;;;12.55;;
151;SDS011;68;48.792;9.164;2024-02-04T02:35:09;13.00;;;12.30;;
151;SDS011;68;48.792;9.164;2024-02-04T02:37:39;12.93;;;12.23;;
151;SDS011;68;48.792;9.164;2024-02-04T02:40:10;13.48;;;12.77;;
151;SDS011;68;48.792;9.164;2024-02-04T02:42:43;13.07;;;12.38;;
151;SDS011;68;48.792;9.164;2024-02-04T02:45:13;13.05;;;12.35;;
151;SDS011;68;48.792;9.164;2024-02-04T02:47:41;13.38;;;12.68;;
151;SDS011;68;48.792;9.164;2024-02-04T02:50:09;13.35;;;12.65;;
151;SDS011;68;48.792;9.164;2024-02-04T02:52:36;12.90;;;12.20;;
151;SDS011;68;48.792;9.164;2024-02-04T02:55:03;12.75;;;12.05;;
151;SDS011;68;48.792;9.164;2024-02-04T02:57:31;12.88;;;12.18;;
151;SDS011;68;48.792;9.164;2024-02-04T02:59:59;13.43;;;12.73;;
151;SDS011;68;48.792;9.164;2024-02-04T03:02:25;12.60;;;11.95;;
151;SDS011;68;48.792;9.164;2024-02-04T03:04:52;12.50;;;11.90;;
151;SDS011;68;48.792;9.164;2024-02-04T03:07:19;13.38;;;12.68;;
151;SDS011;68;48.792;9.164;2024-02-04T03:09:46;12.93;;;12.23;;
151;SDS011;68;48.792;9.164;2024-02-04T03:12:13;12.90;;;12.20;;
151;SDS011;68;48.792;9.164;2024-02-04T03:14:40;13.10;;;12.40;;
151;SDS011;68;48.792;9.164;2024-02-04T03:17:08;12.77;;;12.07;;
151;SDS011;68;48.792;9.164;2024-02-04T03:19:34;12.70;;;12.00;;
151;SDS011;68;48.792;9.164;2024-02-04T03:22:01;13.07;;;12.38;;
151;SDS011;68;48.792;9.164;2024-02-04T03:24:28;12.93;;;12.23;;
151;SDS011;68;48.792;9.164;2024-02-04T03:26:55;13.07;;;12.38;;
151;SDS011;68;48.792;9.164;2024-02-04T03:29:21;13.00;;;12.30;;
151;SDS011;68;48.792;9.164;2024-02-04T03:31:48;13.23;;;12.52;;
151;SDS011;68;48.792;9.164;2024-02-04T03:34:17;12.90;;;12.20;;
151;SDS011;68;48.792;9.164;2024-02-04T03:36:43;13.15;;;12.45;;
151;SDS011;68;48.792;9.164;2024-02-04T03:39:10;13.05;;;12.35;;
151;SDS011;68;48.792;9.164;2024-02-04T03:41:37;13.13;;;12.43;;
151;SDS011;68;48.792;9.164;2024-02-04T03:44:04;13.10;;;12.40;;
151;SDS011;68;48.792;9.164;2024-02-04T03:46:30;13.00;;;12.30;;
151;SDS011;68;48.792;9.164;2024-02-04T03:48:57;13.63;;;12.93;;
151;SDS011;68;48.792;9.164;2024-02-04T03:51:25;12.80;;;12.10;;
151;SDS011;68;48.792;9.164;2024-02-04T03:53:52;12.73;;;12.02;;
151;SDS011;68;48.792;9.164;2024-02-04T03:56:19;12.77;;;12.07;;
151;SDS011;68;48.792;9.164;2024-02-04T03:58:45;13.20;;;12.50;;
151;SDS011;68;48.792;9.164;2024-02-04T04:01:12;12.40;;;11.80;;
151;SDS011;68;48.792;9.164;2024-02-04T04:03:39;12.90;;;12.20;;
151;SDS011;68;48.792;9.164;2024-02-04T04:06:06;12.93;;;12.23;;
151;SDS011;68;48.792;9.164;2024-02-04T04:08:35;12.80;;;12.10;;
151;SDS011;68;48.792;9.164;2024-02-04T04:11:02;13.15;;;12.45;;
151;SDS011;68;48.792;9.164;2024-02-04T04:13:28;13.43;;;12.73;;
151;SDS011;68;48.792;9.164;2024-02-04T04:15:57;12.80;;;12.10;;
151;SDS011;68;48.792;9.164;2024-02-04T04:18:24;12.80;;;12.10;;
151;SDS011;68;48.792;9.164;2024-02-04T04:20:50;12.88;;;12.18;;
151;SDS011;68;48.792;9.164;2024-02-04T04:23:17;13.00;;;12.30;;
151;SDS011;68;48.792;9.164;2024-02-04T04:25:45;12.90;;;12.20;;
151;SDS011;68;48.792;9.164;2024-02-04T04:28:12;13.45;;;12.75;;
151;SDS011;68;48.792;9.164;2024-02-04T04:30:39;13.48;;;12.77;;
151;SDS011;68;48.792;9.164;2024-02-04T04:33:05;13.60;;;12.90;;
151;SDS011;68;48.792;9.164;2024-02-04T04:35:33;13.45;;;12.75;;
151;SDS011;68;48.792;9.164;2024-02-04T04:38:00;12.98;;;12.27;;
151;SDS011;68;48.792;9.164;2024-02-04T04:40:26;13.45;;;12.75;;
151;SDS011;68;48.792;9.164;2024-02-04T04:42:54;13.25;;;12.55;;
151;SDS011;68;48.792;9.164;2024-02-04T04:45:21;13.55;;;12.85;;
151;SDS011;68;48.792;9.164;2024-02-04T04:47:48;13.10;;;12.40;;
151;SDS011;68;48.792;9.164;2024-02-04T04:50:15;13.50;;;12.80;;
151;SDS011;68;48.792;9.164;2024-02-04T04:52:41;13.32;;;12.63;;
151;SDS011;68;48.792;9.164;2024-02-04T04:55:08;12.93;;;12.23;;
151;SDS011;68;48.792;9.164;2024-02-04T04:57:35;13.23;;;12.52;;
151;SDS011;68;48.792;9.164;2024-02-04T05:00:03;13.40;;;12.70;;
151;SDS011;68;48.792;9.164;2024-02-04T05:02:34;12.80;;;12.10;;
151;SDS011;68;48.792;9.164;2024-02-04T05:05:01;13.52;;;12.82;;
151;SDS011;68;48.792;9.164;2024-02-04T05:07:28;12.90;;;12.20;;
151;SDS011;68;48.792;9.164;2024-02-04T05:09:55;13.07;;;12.38;;
151;SDS011;68;48.792;9.164;2024-02-04T05:12:22;12.80;;;12.10;;
151;SDS011;68;48.792;9.164;2024-02-04T05:14:48;13.00;;;12.30;;
151;SDS011;68;48.792;9.164;2024-02-04T05:17:16;12.50;;;11.90;;
151;SDS011;68;48.792;9.164;2024-02-04T05:19:43;13.05;;;12.35;;
151;SDS011;68;48.792;9.164;2024-02-04T05:22:10;12.95;;;12.25;;
151;SDS011;68;48.792;9.164;2024-02-04T05:24:37;12.65;;;11.98;;
151;SDS011;68;48.792;9.164;2024-02-04T05:27:04;12.88;;;12.18;;
151;SDS011;68;48.792;9.164;2024-02-04T05:29:31;12.85;;;12.15;;
151;SDS011;68;48.792;9.164;2024-02-04T05:31:58;12.70;;;12.00;;
151;SDS011;68;48.792;9.164;2024-02-04T05:34:26;12.50;;;11.90;;
151;SDS011;68;48.792;9.164;2024-02-04T05:36:55;13.10;;;12.40;;
151;SDS011;68;48.792;9.164;2024-02-04T05:39:22;12.90;;;12.20;;
151;SDS011;68;48.792;9.164;2024-02-04T05:41:49;13.45;;;12.75;;
151;SDS011;68;48.792;9.164;2024-02-04T05:44:16;12.82;;;12.13;;
151;SDS011;68;48.792;9.164;2024-02-04T05:46:43;13.43;;;12.73;;
151;SDS011;68;48.792;9.164;2024-02-04T05:49:10;13.07;;;12.38;;
151;SDS011;68;48.792;9.164;2024-02-04T05:51:39;13.00;;;12.30;;
151;SDS011;68;48.792;9.164;2024-02-04T05:54:06;12.60;;;11.95;;
151;SDS011;68;48.792;9.164;2024-02-04T05:56:33;13.20;;;12.50;;
151;SDS011;68;48.792;9.164;2024-02-04T05:59:00;12.73;;;12.02;;
151;SDS011;68;48.792;9.164;2024-02-04T06:01:27;13.20;;;12.50;;
151;SDS011;68;48.792;9.164;2024-02-04T06:03:54;12.48;;;11.88;;
151;SDS011;68;48.792;9.164;2024-02-04T06:06:21;12.55;;;11.93;;
151;SDS011;68;48.792;9.164;2024-02-04T06:08:49;12.82;;;12.13;;
151;SDS011;68;48.792;9.164;2024-02-04T06:11:15;12.18;;;11.57;;
151;SDS011;68;48.792;9.164;2024-02-04T06:13:43;12.68;;;12.00;;
151;SDS011;68;48.792;9.164;2024-02-04T06:16:10;12.27;;;11.68;;
151;SDS011;68;48.792;9.164;2024-02-04T06:18:37;12.15;;;11.55;;
151;SDS011;68;48.792;9.164;2024-02-04T06:21:05;11.90;;;11.30;;
151;SDS011;68;48.792;9.164;2024-02-04T06:23:32;12.35;;;11.75;;
151;SDS011;68;48.792;9.164;2024-02-04T06:26:01;12.48;;;11.88;;
151;SDS011;68;48.792;9.164;2024-02-04T06:28:27;12.85;;;12.15;;
151;SDS011;68;48.792;9.164;2024-02-04T06:30:54;12.60;;;11.95;;
151;SDS011;68;48.792;9.164;2024-02-04T06:33:21;12.80;;;12.10;;
151;SDS011;68;48.792;9.164;2024-02-04T06:35:49;12.73;;;12.05;;
151;SDS011;68;48.792;9.164;2024-02-04T06:38:16;12.50;;;11.90;;
151;SDS011;68;48.792;9.164;2024-02-04T06:40:43;12.45;;;11.85;;
151;SDS011;68;48.792;9.164;2024-02-04T06:43:11;12.77;;;12.07;;
151;SDS011;68;48.792;9.164;2024-02-04T06:45:38;13.00;;;12.30;;
151;SDS011;68;48.792;9.164;2024-02-04T06:48:05;12.85;;;12.15;;
151;SDS011;68;48.792;9.164;2024-02-04T06:50:33;12.98;;;12.27;;
151;SDS011;68;48.792;9.164;2024-02-04T06:53:00;12.35;;;11.75;;
151;SDS011;68;48.792;9.164;2024-02-04T06:55:27;13.00;;;12.30;;
151;SDS011;68;48.792;9.164;2024-02-04T06:57:54;12.88;;;12.18;;
151;SDS011;68;48.792;9.164;2024-02-04T07:00:22;12.90;;;12.20;;
151;SDS011;68;48.792;9.164;2024-02-04T07:02:48;13.05;;;12.35;;
151;SDS011;68;48.792;9.164;2024-02-04T07:05:15;13.13;;;12.43;;
151;SDS011;68;48.792;9.164;2024-02-04T07:07:42;13.30;;;12.60;;
151;SDS011;68;48.792;9.164;2024-02-04T07:10:09;12.90;;;12.20;;
151;SDS011;68;48.792;9.164;2024-02-04T07:12:36;13.80;;;13.10;;
151;SDS011;68;48.792;9.164;2024-02-04T07:15:03;13.15;;;12.45;;
151;SDS011;68;48.792;9.164;2024-02-04T07:17:31;13.10;;;12.40;;
151;SDS011;68;48.792;9.164;2024-02-04T07:19:58;13.15;;;12.45;;
151;SDS011;68;48.792;9.164;2024-02-04T07:22:25;13.55;;;12.85;;
151;SDS011;68;48.792;9.164;2024-02-04T07:24:52;13.05;;;12.35;;
151;SDS011;68;48.792;9.164;2024-02-04T07:27:18;13.20;;;12.50;;
151;SDS011;68;48.792;9.164;2024-02-04T07:29:45;12.82;;;12.13;;
151;SDS011;68;48.792;9.164;2024-02-04T07:32:13;12.45;;;11.85;;
151;SDS011;68;48.792;9.164;2024-02-04T07:34:41;12.75;;;12.05;;
151;SDS011;68;48.792;9.164;2024-02-04T07:37:08;12.82;;;12.13;;
151;SDS011;68;48.792;9.164;2024-02-04T07:39:34;12.60;;;11.95;;
151;SDS011;68;48.792;9.164;2024-02-04T07:42:01;12.48;;;11.88;;
151;SDS011;68;48.792;9.164;2024-02-04T07:44:28;13.35;;;12.65;;
151;SDS011;68;48.792;9.164;2024-02-04T07:46:55;12.95;;;12.25;;
151;SDS011;68;48.792;9.164;2024-02-04T07:49:22;12.85;;;12.15;;
151;SDS011;68;48.792;9.164;2024-02-04T07:51:50;12.73;;;12.02;;
151;SDS011;68;48.792;9.164;2024-02-04T07:54:17;12.30;;;11.70;;
151;SDS011;68;48.792;9.164;2024-02-04T07:56:44;12.90;;;12.20;;
151;SDS011;68;48.792;9.164;2024-02-04T07:59:11;12.10;;;11.50;;
151;SDS011;68;48.792;9.164;2024-02-04T08:01:37;13.05;;;12.35;;
151;SDS011;68;48.792;9.164;2024-02-04T08:04:04;11.70;;;11.10;;
151;SDS011;68;48.792;9.164;2024-02-04T08:06:33;12.30;;;11.70;;
151;SDS011;68;48.792;9.164;2024-02-04T08:09:01;12.25;;;11.65;;
151;SDS011;68;48.792;9.164;2024-02-04T08:11:28;12.73;;;12.02;;
151;SDS011;68;48.792;9.164;2024-02-04T08:13:55;12.48;;;11.88;;
151;SDS011;68;48.792;9.164;2024-02-04T08:16:22;12.50;;;11.48;;
151;SDS011;68;48.792;9.164;2024-02-04T08:18:50;12.30;;;11.70;;
151;SDS011;68;48.792;9.164;2024-02-04T08:21:16;11.75;;;11.15;;
151;SDS011;68;48.792;9.164;2024-02-04T08:23:43;12.20;;;11.60;;
151;SDS011;68;48.792;9.164;2024-02-04T08:26:12;12.20;;;11.60;;
151;SDS011;68;48.792;9.164;2024-02-04T08:28:39;12.70;;;12.00;;
151;SDS011;68;48.792;9.164;2024-02-04T08:31:05;12.40;;;11.80;;
151;SDS011;68;48.792;9.164;2024-02-04T08:33:32;12.23;;;11.63;;
151;SDS011;68;48.792;9.164;2024-02-04T08:35:59;12.23;;;11.63;;
151;SDS011;68;48.792;9.164;2024-02-04T08:38:26;12.43;;;11.80;;
151;SDS011;68;48.792;9.164;2024-02-04T08:40:52;12.40;;;11.80;;
151;SDS011;68;48.792;9.164;2024-02-04T08:43:20;12.20;;;11.60;;
151;SDS011;68;48.792;9.164;2024-02-04T08:45:47;12.43;;;11.82;;
151;SDS011;68;48.792;9.164;2024-02-04T08:48:14;12.35;;;11.75;;
151;SDS011;68;48.792;9.164;2024-02-04T08:50:41;12.25;;;11.65;;
151;SDS011;68;48.792;9.164;2024-02-04T08:53:08;12.40;;;11.80;;
151;SDS011;68;48.792;9.164;2024-02-04T08:55:34;11.70;;;11.10;;
151;SDS011;68;48.792;9.164;2024-02-04T08:58:01;12.52;;;11.90;;
151;SDS011;68;48.792;9.164;2024-02-04T09:00:29;12.60;;;11.95;;
151;SDS011;68;48.792;9.164;2024-02-04T09:02:56;12.45;;;11.85;;
151;SDS011;68;48.792;9.164;2024-02-04T09:05:23;12.10;;;11.50;;
151;SDS011;68;48.792;9.164;2024-02-04T09:07:50;12.55;;;11.93;;
151;SDS011;68;48.792;9.164;2024-02-04T09:10:16;12.05;;;11.45;;
151;SDS011;68;48.792;9.164;2024-02-04T09:12:43;12.30;;;11.70;;
151;SDS011;68;48.792;9.164;2024-02-04T09:15:10;12.25;;;11.65;;
151;SDS011;68;48.792;9.164;2024-02-04T09:17:38;12.30;;;11.70;;
151;SDS011;68;48.792;9.164;2024-02-04T09:20:05;12.65;;;11.98;;
151;SDS011;68;48.792;9.164;2024-02-04T09:22:33;11.93;;;11.32;;
151;SDS011;68;48.792;9.164;2024-02-04T09:25:00;12.20;;;11.60;;
151;SDS011;68;48.792;9.164;2024-02-04T09:27:27;12.68;;;12.00;;
151;SDS011;68;48.792;9.164;2024-02-04T09:29:54;12.23;;;11.63;;
151;SDS011;68;48.792;9.164;2024-02-04T09:32:21;12.20;;;11.60;;
151;SDS011;68;48.792;9.164;2024-02-04T09:34:49;12.10;;;11.50;;
151;SDS011;68;48.792;9.164;2024-02-04T09:37:16;11.70;;;11.10;;
151;SDS011;68;48.792;9.164;2024-02-04T09:39:43;12.20;;;11.60;;
151;SDS011;68;48.792;9.164;2024-02-04T09:42:10;12.00;;;11.40;;
151;SDS011;68;48.792;9.164;2024-02-04T09:44:44;11.65;;;11.05;;
151;SDS011;68;48.792;9.164;2024-02-04T09:47:11;12.40;;;11.80;;
151;SDS011;68;48.792;9.164;2024-02-04T09:49:39;11.93;;;11.32;;
151;SDS011;68;48.792;9.164;2024-02-04T09:52:08;11.88;;;11.27;;
151;SDS011;68;48.792;9.164;2024-02-04T09:54:36;11.90;;;11.30;;
151;SDS011;68;48.792;9.164;2024-02-04T09:57:09;12.40;;;11.80;;
151;SDS011;68;48.792;9.164;2024-02-04T09:59:37;13.00;;;12.30;;
151;SDS011;68;48.792;9.164;2024-02-04T10:02:04;12.05;;;11.45;;
151;SDS011;68;48.792;9.164;2024-02-04T10:04:31;12.07;;;11.48;;
151;SDS011;68;48.792;9.164;2024-02-04T10:06:58;12.20;;;11.60;;
151;SDS011;68;48.792;9.164;2024-02-04T10:09:26;12.48;;;11.88;;
151;SDS011;68;48.792;9.164;2024-02-04T10:11:54;12.70;;;12.00;;
151;SDS011;68;48.792;9.164;2024-02-04T10:14:21;12.32;;;11.73;;
151;SDS011;68;48.792;9.164;2024-02-04T10:16:49;12.32;;;11.73;;
151;SDS011;68;48.792;9.164;2024-02-04T10:19:16;12.10;;;11.50;;
151;SDS011;68;48.792;9.164;2024-02-04T10:21:43;12.25;;;11.65;;
151;SDS011;68;48.792;9.164;2024-02-04T10:24:09;11.77;;;11.18;;
151;SDS011;68;48.792;9.164;2024-02-04T10:26:38;11.82;;;11.23;;
151;SDS011;68;48.792;9.164;2024-02-04T10:29:08;12.10;;;11.50;;
151;SDS011;68;48.792;9.164;2024-02-04T10:31:35;12.25;;;11.65;;
151;SDS011;68;48.792;9.164;2024-02-04T10:34:02;11.95;;;11.35;;
151;SDS011;68;48.792;9.164;2024-02-04T10:36:30;12.07;;;11.48;;
151;SDS011;68;48.792;9.164;2024-02-04T10:38:57;11.93;;;11.32;;
151;SDS011;68;48.792;9.164;2024-02-04T10:41:23;11.80;;;11.20;;
151;SDS011;68;48.792;9.164;2024-02-04T10:43:53;11.70;;;11.10;;
151;SDS011;68;48.792;9.164;2024-02-04T10:46:22;11.57;;;10.98;;
151;SDS011;68;48.792;9.164;2024-02-04T10:48:51;11.80;;;11.20;;
151;SDS011;68;48.792;9.164;2024-02-04T10:51:24;12.45;;;11.85;;
151;SDS011;68;48.792;9.164;2024-02-04T10:53:52;12.15;;;11.55;;
151;SDS011;68;48.792;9.164;2024-02-04T10:56:22;11.98;;;11.38;;
151;SDS011;68;48.792;9.164;2024-02-04T10:58:56;12.20;;;11.60;;
151;SDS011;68;48.792;9.164;2024-02-04T11:01:25;11.70;;;11.10;;
151;SDS011;68;48.792;9.164;2024-02-04T11:03:52;12.55;;;11.93;;
151;SDS011;68;48.792;9.164;2024-02-04T11:06:20;11.88;;;11.27;;
151;SDS011;68;48.792;9.164;2024-02-04T11:08:49;11.70;;;11.10;;
151;SDS011;68;48.792;9.164;2024-02-04T11:11:17;11.70;;;11.10;;
151;SDS011;68;48.792;9.164;2024-02-04T11:13:45;11.80;;;11.20;;
151;SDS011;68;48.792;9.164;2024-02-04T11:16:19;12.20;;;11.60;;
151;SDS011;68;48.792;9.164;2024-02-04T11:19:04;12.75;;;12.05;;
151;SDS011;68;48.792;9.164;2024-02-04T11:21:45;12.10;;;11.50;;
151;SDS011;68;48.792;9.164;2024-02-04T11:24:34;12.65;;;11.98;;
151;SDS011;68;48.792;9.164;2024-02-04T11:27:16;12.20;;;11.60;;
151;SDS011;68;48.792;9.164;2024-02-04T11:29:43;12.43;;;11.82;;
151;SDS011;68;48.792;9.164;2024-02-04T11:32:12;11.93;;;11.32;;
151;SDS011;68;48.792;9.164;2024-02-04T11:34:39;12.00;;;11.40;;
151;SDS011;68;48.792;9.164;2024-02-04T11:37:15;12.00;;;11.40;;
151;SDS011;68;48.792;9.164;2024-02-04T11:39:50;12.30;;;11.70;;
151;SDS011;68;48.792;9.164;2024-02-04T11:42:18;12.45;;;11.85;;
151;SDS011;68;48.792;9.164;2024-02-04T11:44:45;12.27;;;11.68;;
151;SDS011;68;48.792;9.164;2024-02-04T11:47:23;16.38;;;11.30;;
151;SDS011;68;48.792;9.164;2024-02-04T11:49:53;11.80;;;11.20;;
151;SDS011;68;48.792;9.164;2024-02-04T11:52:20;11.82;;;11.23;;
151;SDS011;68;48.792;9.164;2024-02-04T11:54:47;11.98;;;11.38;;
151;SDS011;68;48.792;9.164;2024-02-04T11:57:14;12.15;;;11.55;;
151;SDS011;68;48.792;9.164;2024-02-04T11:59:42;11.90;;;11.30;;
151;SDS011;68;48.792;9.164;2024-02-04T12:02:09;11.85;;;11.25;;
151;SDS011;68;48.792;9.164;2024-02-04T12:04:38;12.30;;;11.70;;
151;SDS011;68;48.792;9.164;2024-02-04T12:07:06;12.15;;;11.55;;
151;SDS011;68;48.792;9.164;2024-02-04T12:09:34;12.35;;;11.75;;
151;SDS011;68;48.792;9.164;2024-02-04T12:12:01;12.68;;;12.00;;
151;SDS011;68;48.792;9.164;2024-02-04T12:14:29;12.43;;;11.82;;
151;SDS011;68;48.792;9.164;2024-02-04T12:16:55;11.90;;;11.30;;
151;SDS011;68;48.792;9.164;2024-02-04T12:19:24;12.30;;;11.70;;
151;SDS011;68;48.792;9.164;2024-02-04T12:21:53;12.18;;;11.57;;
151;SDS011;68;48.792;9.164;2024-02-04T12:24:21;12.43;;;11.82;;
151;SDS011;68;48.792;9.164;2024-02-04T12:26:48;12.50;;;11.90;;
151;SDS011;68;48.792;9.164;2024-02-04T12:29:15;12.73;;;12.02;;
151;SDS011;68;48.792;9.164;2024-02-04T12:31:42;12.10;;;11.50;;
151;SDS011;68;48.792;9.164;2024-02-04T12:34:10;12.23;;;11.63;;
151;SDS011;68;48.792;9.164;2024-02-04T12:36:39;12.82;;;12.00;;
151;SDS011;68;48.792;9.164;2024-02-04T12:39:07;12.20;;;11.60;;
151;SDS011;68;48.792;9.164;2024-02-04T12:41:37;12.70;;;12.00;;
151;SDS011;68;48.792;9.164;2024-02-04T12:44:04;12.65;;;11.98;;
151;SDS011;68;48.792;9.164;2024-02-04T12:46:31;12.57;;;11.93;;
151;SDS011;68;48.792;9.164;2024-02-04T12:48:58;12.73;;;12.02;;
151;SDS011;68;48.792;9.164;2024-02-04T12:51:25;12.10;;;11.50;;
151;SDS011;68;48.792;9.164;2024-02-04T12:54:06;13.10;;;12.40;;
151;SDS011;68;48.792;9.164;2024-02-04T12:56:43;12.55;;;11.93;;
151;SDS011;68;48.792;9.164;2024-02-04T12:59:11;12.50;;;11.90;;
151;SDS011;68;48.792;9.164;2024-02-04T13:01:51;12.85;;;11.60;;
151;SDS011;68;48.792;9.164;2024-02-04T13:04:19;12.50;;;11.90;;
151;SDS011;68;48.792;9.164;2024-02-04T13:06:46;12.25;;;11.65;;
151;SDS011;68;48.792;9.164;2024-02-04T13:09:15;12.30;;;11.70;;
151;SDS011;68;48.792;9.164;2024-02-04T13:11:42;12.75;;;12.05;;
151;SDS011;68;48.792;9.164;2024-02-04T13:14:09;12.20;;;11.60;;
151;SDS011;68;48.792;9.164;2024-02-04T13:16:37;12.10;;;11.50;;
151;SDS011;68;48.792;9.164;2024-02-04T13:19:04;12.20;;;11.60;;
151;SDS011;68;48.792;9.164;2024-02-04T13:21:31;12.30;;;11.70;;
151;SDS011;68;48.792;9.164;2024-02-04T13:23:58;13.25;;;12.55;;
151;SDS011;68;48.792;9.164;2024-02-04T13:26:26;12.80;;;12.10;;
151;SDS011;68;48.792;9.164;2024-02-04T13:28:53;12.50;;;11.90;;
151;SDS011;68;48.792;9.164;2024-02-04T13:31:20;12.25;;;11.65;;
151;SDS011;68;48.792;9.164;2024-02-04T13:33:46;12.50;;;11.90;;
151;SDS011;68;48.792;9.164;2024-02-04T13:36:13;12.20;;;11.60;;
151;SDS011;68;48.792;9.164;2024-02-04T13:38:40;12.20;;;11.60;;
151;SDS011;68;48.792;9.164;2024-02-04T13:41:07;12.20;;;11.60;;
151;SDS011;68;48.792;9.164;2024-02-04T13:43:35;13.00;;;12.30;;
151;SDS011;68;48.792;9.164;2024-02-04T13:46:02;13.38;;;12.68;;
151;SDS011;68;48.792;9.164;2024-02-04T13:48:29;13.18;;;12.48;;
151;SDS011;68;48.792;9.164;2024-02-04T13:50:56;12.90;;;12.20;;
151;SDS011;68;48.792;9.164;2024-02-04T13:53:23;12.98;;;12.27;;
151;SDS011;68;48.792;9.164;2024-02-04T13:55:50;12.88;;;12.18;;
151;SDS011;68;48.792;9.164;2024-02-04T13:58:17;13.10;;;12.40;;
151;SDS011;68;48.792;9.164;2024-02-04T14:00:45;13.07;;;12.38;;
151;SDS011;68;48.792;9.164;2024-02-04T14:03:12;13.00;;;12.30;;
151;SDS011;68;48.792;9.164;2024-02-04T14:05:39;12.70;;;12.00;;
151;SDS011;68;48.792;9.164;2024-02-04T14:08:06;13.10;;;12.40;;
151;SDS011;68;48.792;9.164;2024-02-04T14:10:33;13.00;;;12.30;;
151;SDS011;68;48.792;9.164;2024-02-04T14:13:01;12.80;;;12.10;;
151;SDS011;68;48.792;9.164;2024-02-04T14:15:28;13.15;;;12.45;;
151;SDS011;68;48.792;9.164;2024-02-04T14:17:59;12.93;;;12.23;;
151;SDS011;68;48.792;9.164;2024-02-04T14:20:26;13.95;;;12.68;;
151;SDS011;68;48.792;9.164;2024-02-04T14:22:52;13.10;;;12.40;;
151;SDS011;68;48.792;9.164;2024-02-04T14:25:19;13.75;;;13.05;;
151;SDS011;68;48.792;9.164;2024-02-04T14:27:46;13.35;;;12.65;;
151;SDS011;68;48.792;9.164;2024-02-04T14:30:13;13.30;;;12.60;;
151;SDS011;68;48.792;9.164;2024-02-04T14:32:40;13.38;;;12.68;;
151;SDS011;68;48.792;9.164;2024-02-04T14:35:09;13.35;;;12.65;;
151;SDS011;68;48.792;9.164;2024-02-04T14:37:36;12.50;;;11.90;;
151;SDS011;68;48.792;9.164;2024-02-04T14:40:04;13.02;;;12.32;;
151;SDS011;68;48.792;9.164;2024-02-04T14:42:32;13.00;;;12.30;;
151;SDS011;68;48.792;9.164;2024-02-04T14:44:59;13.63;;;12.23;;
151;SDS011;68;48.792;9.164;2024-02-04T14:47:26;12.55;;;11.93;;
151;SDS011;68;48.792;9.164;2024-02-04T14:49:53;12.82;;;12.13;;
151;SDS011;68;48.792;9.164;2024-02-04T14:52:21;12.75;;;12.05;;
151;SDS011;68;48.792;9.164;2024-02-04T14:54:48;12.98;;;12.27;;
151;SDS011;68;48.792;9.164;2024-02-04T14:57:15;13.43;;;12.73;;
151;SDS011;68;48.792;9.164;2024-02-04T14:59:42;12.95;;;12.25;;
151;SDS011;68;48.792;9.164;2024-02-04T15:02:09;13.25;;;12.55;;
151;SDS011;68;48.792;9.164;2024-02-04T15:04:36;12.25;;;11.65;;
151;SDS011;68;48.792;9.164;2024-02-04T15:07:04;12.30;;;11.70;;
151;SDS011;68;48.792;9.164;2024-02-04T15:09:33;12.45;;;11.85;;
151;SDS011;68;48.792;9.164;2024-02-04T15:12:00;12.25;;;11.65;;
151;SDS011;68;48.792;9.164;2024-02-04T15:14:27;12.40;;;11.80;;
151;SDS011;68;48.792;9.164;2024-02-04T15:16:55;13.00;;;12.30;;
151;SDS011;68;48.792;9.164;2024-02-04T15:19:23;13.00;;;12.30;;
151;SDS011;68;48.792;9.164;2024-02-04T15:21:51;13.05;;;12.35;;
151;SDS011;68;48.792;9.164;2024-02-04T15:24:18;12.93;;;12.23;;
151;SDS011;68;48.792;9.164;2024-02-04T15:26:47;13.10;;;12.40;;
151;SDS011;68;48.792;9.164;2024-02-04T15:29:15;13.45;;;12.75;;
151;SDS011;68;48.792;9.164;2024-02-04T15:31:43;12.38;;;11.77;;